createdAt,value
2017-05-29T00:04:03.121Z,1008.6
2017-05-29T00:14:18.696Z,1008.5
2017-05-29T00:24:33.550Z,1008.5
2017-05-29T00:34:47.965Z,1008.4
2017-05-29T00:45:02.067Z,1008.3
2017-05-29T00:55:17.603Z,1008.2
2017-05-29T01:05:31.583Z,1008.2
2017-05-29T01:15:46.712Z,1008.3
2017-05-29T01:26:01.243Z,1008.3
2017-05-29T01:36:15.422Z,1008.3
2017-05-29T01:46:31.110Z,1008.3
2017-05-29T01:56:46.558Z,1008.4
2017-05-29T02:07:02.134Z,1008.2
2017-05-29T02:17:17.046Z,1008
2017-05-29T02:27:31.080Z,1008
2017-05-29T02:37:44.827Z,1008
2017-05-29T02:48:00.380Z,1008.1
2017-05-29T02:58:14.612Z,1008
2017-05-29T03:08:29.614Z,1008
2017-05-29T03:18:44.857Z,1007.9
2017-05-29T03:28:59.335Z,1007.7
2017-05-29T03:39:13.282Z,1007.7
2017-05-29T03:49:27.346Z,1007.5
2017-05-29T03:59:41.314Z,1007.5
2017-05-29T04:09:55.153Z,1007.6
2017-05-29T04:20:09.575Z,1007.3
2017-05-29T04:30:25.187Z,1007.5
2017-05-29T04:40:40.200Z,1007.4
2017-05-29T04:50:54.956Z,1007.4
2017-05-29T05:01:09.809Z,1007.4
2017-05-29T05:11:23.650Z,1007.3
2017-05-29T05:21:38.135Z,1007.4
2017-05-29T05:31:52.753Z,1007.5
2017-05-29T05:42:07.098Z,1007.5
2017-05-29T05:52:22.169Z,1007.5
2017-05-29T06:02:36.711Z,1007.4
2017-05-29T06:12:51.558Z,1007.4
2017-05-29T06:23:07.146Z,1007.5
2017-05-29T06:33:22.360Z,1007.5
2017-05-29T06:43:36.476Z,1007.4
2017-05-29T06:53:51.062Z,1007.2
2017-05-29T07:04:06.791Z,1007.3
2017-05-29T07:14:21.724Z,1007.3
2017-05-29T07:24:35.742Z,1007.2
2017-05-29T07:34:50.474Z,1007.2
2017-05-29T07:45:06.261Z,1007.3
2017-05-29T07:55:20.844Z,1007.1
2017-05-29T08:05:35.837Z,1007
2017-05-29T08:15:51.359Z,1007
2017-05-29T08:26:06.875Z,1007.2
2017-05-29T08:36:21.822Z,1007.1
2017-05-29T08:46:36.626Z,1007.1
2017-05-29T08:56:52.422Z,1007.1
2017-05-29T09:07:06.541Z,1007
2017-05-29T09:17:21.172Z,1006.8
2017-05-29T09:27:36.829Z,1006.7
2017-05-29T09:37:51.471Z,1006.7
2017-05-29T09:48:05.588Z,1006.7
2017-05-29T09:58:20.363Z,1006.7
2017-05-29T10:08:35.292Z,1006.4
2017-05-29T10:18:50.494Z,1006.3
2017-05-29T10:29:06.168Z,1006.3
2017-05-29T10:39:21.105Z,1006.2
2017-05-29T10:49:35.310Z,1006
2017-05-29T10:59:50.430Z,1005.9
2017-05-29T11:10:06.222Z,1005.8
2017-05-29T11:20:21.228Z,1005.5
2017-05-29T11:30:36.988Z,1005.4
2017-05-29T11:40:51.637Z,1005.3
2017-05-29T11:51:07.038Z,1005.3
2017-05-29T12:01:21.165Z,1005.2
2017-05-29T12:11:36.410Z,1005.1
2017-05-29T12:21:51.566Z,1005.2
2017-05-29T12:32:05.905Z,1005.4
2017-05-29T12:42:20.984Z,1005.3
2017-05-29T12:52:35.431Z,1005.4
2017-05-29T13:02:49.831Z,1005.1
2017-05-29T13:13:04.541Z,1005.2
2017-05-29T13:23:20.046Z,1005.2
2017-05-29T13:33:34.560Z,1005.6
2017-05-29T13:43:49.619Z,1005.5
2017-05-29T13:54:03.870Z,1005.2
2017-05-29T14:04:19.822Z,1004.4
2017-05-29T14:14:35.469Z,1004.1
2017-05-29T14:24:50.781Z,1003.6
2017-05-29T14:35:06.034Z,1003.5
2017-05-29T14:45:21.648Z,1003.4
2017-05-29T14:55:37.147Z,1003.4
2017-05-29T15:05:52.876Z,1003.3
2017-05-29T15:16:07.649Z,1003.2
2017-05-29T15:26:23.388Z,1003.1
2017-05-29T15:36:38.382Z,1003
2017-05-29T15:46:52.991Z,1002.9
2017-05-29T15:57:07.279Z,1002.9
2017-05-29T16:07:22.638Z,1002.9
2017-05-29T16:17:36.910Z,1002.8
2017-05-29T16:27:51.042Z,1002.8
2017-05-29T16:38:05.275Z,1002.8
2017-05-29T16:48:20.331Z,1002.8
2017-05-29T16:58:34.950Z,1002.8
2017-05-29T17:08:50.140Z,1002.7
2017-05-29T17:19:05.373Z,1002.7
2017-05-29T17:29:19.398Z,1002.7
2017-05-29T17:39:35.139Z,1002.7
2017-05-29T17:49:50.003Z,1002.8
2017-05-29T18:00:04.943Z,1002.9
2017-05-29T18:10:19.602Z,1002.9
2017-05-29T18:20:34.668Z,1003
2017-05-29T18:30:48.836Z,1003.3
2017-05-29T18:41:04.152Z,1003.1
2017-05-29T18:51:19.482Z,1003.2
2017-05-29T19:01:33.374Z,1003.3
2017-05-29T19:11:48.650Z,1003.3
2017-05-29T19:22:03.665Z,1003.4
2017-05-29T19:32:19.154Z,1003.4
2017-05-29T19:42:34.225Z,1003.3
2017-05-29T19:52:50.019Z,1003.3
2017-05-29T20:03:04.345Z,1003.3
2017-05-29T20:13:18.354Z,1003.1
2017-05-29T20:23:33.998Z,1003
2017-05-29T20:33:47.862Z,1003.2
2017-05-29T20:44:03.404Z,1003.1
2017-05-29T20:54:17.737Z,1003.2
2017-05-29T21:04:31.702Z,1003.4
2017-05-29T21:14:46.201Z,1003.4
2017-05-29T21:25:01.555Z,1003.5
2017-05-29T21:35:17.221Z,1003.6
2017-05-29T21:45:32.931Z,1003.6
2017-05-29T21:55:48.375Z,1003.5
2017-05-29T22:06:03.991Z,1003.6
2017-05-29T22:16:19.133Z,1003.5
2017-05-29T22:26:33.975Z,1003.6
2017-05-29T22:36:48.890Z,1003.7
2017-05-29T22:47:02.766Z,1003.7
2017-05-29T22:57:17.431Z,1003.7
2017-05-29T23:07:32.949Z,1003.8
2017-05-29T23:17:46.839Z,1003.7
2017-05-29T23:28:01.905Z,1003.6
2017-05-29T23:38:16.359Z,1003.5
2017-05-29T23:48:30.856Z,1003.5
2017-05-29T23:58:45.369Z,1003.5
